sensor_id;sensor_type;location;lat;lon;timestamp;P1;durP1;ratioP1;P2;durP2;ratioP2
33501;SDS011;22396;51.070;4.974;2022-12-20T00:00:48;2.70;;;1.38;;
33501;SDS011;22396;51.070;4.974;2022-12-20T00:03:13;3.05;;;1.30;;
33501;SDS011;22396;51.070;4.974;2022-12-20T00:05:39;3.55;;;1.70;;
33501;SDS011;22396;51.070;4.974;2022-12-20T00:08:04;3.38;;;1.60;;
33501;SDS011;22396;51.070;4.974;2022-12-20T00:10:30;2.63;;;1.58;;
33501;SDS011;22396;51.070;4.974;2022-12-20T00:12:55;3.58;;;1.98;;
33501;SDS011;22396;51.070;4.974;2022-12-20T00:15:20;3.97;;;1.67;;
33501;SDS011;22396;51.070;4.974;2022-12-20T00:17:45;2.58;;;1.48;;
33501;SDS011;22396;51.070;4.974;2022-12-20T00:20:10;3.45;;;1.45;;
33501;SDS011;22396;51.070;4.974;2022-12-20T00:22:36;3.13;;;1.50;;
33501;SDS011;22396;51.070;4.974;2022-12-20T00:25:01;3.30;;;1.58;;
33501;SDS011;22396;51.070;4.974;2022-12-20T00:27:26;4.13;;;1.13;;
33501;SDS011;22396;51.070;4.974;2022-12-20T00:29:52;2.65;;;1.45;;
33501;SDS011;22396;51.070;4.974;2022-12-20T00:32:17;5.90;;;1.67;;
33501;SDS011;22396;51.070;4.974;2022-12-20T00:34:42;3.42;;;1.60;;
33501;SDS011;22396;51.070;4.974;2022-12-20T00:37:07;4.25;;;1.70;;
33501;SDS011;22396;51.070;4.974;2022-12-20T00:39:32;6.43;;;1.40;;
33501;SDS011;22396;51.070;4.974;2022-12-20T00:41:58;3.72;;;1.63;;
33501;SDS011;22396;51.070;4.974;2022-12-20T00:44:23;4.20;;;1.70;;
33501;SDS011;22396;51.070;4.974;2022-12-20T00:46:48;3.53;;;1.30;;
33501;SDS011;22396;51.070;4.974;2022-12-20T00:49:13;6.20;;;1.85;;
33501;SDS011;22396;51.070;4.974;2022-12-20T00:51:40;5.40;;;1.85;;
33501;SDS011;22396;51.070;4.974;2022-12-20T00:54:05;4.88;;;2.00;;
33501;SDS011;22396;51.070;4.974;2022-12-20T00:56:30;5.13;;;2.03;;
33501;SDS011;22396;51.070;4.974;2022-12-20T00:58:56;5.05;;;1.83;;
33501;SDS011;22396;51.070;4.974;2022-12-20T01:01:23;8.48;;;2.08;;
33501;SDS011;22396;51.070;4.974;2022-12-20T01:03:49;3.90;;;1.92;;
33501;SDS011;22396;51.070;4.974;2022-12-20T01:06:14;5.28;;;2.53;;
33501;SDS011;22396;51.070;4.974;2022-12-20T01:08:39;6.85;;;2.17;;
33501;SDS011;22396;51.070;4.974;2022-12-20T01:11:06;4.85;;;1.80;;
33501;SDS011;22396;51.070;4.974;2022-12-20T01:13:32;3.47;;;1.90;;
33501;SDS011;22396;51.070;4.974;2022-12-20T01:16:02;5.45;;;1.90;;
33501;SDS011;22396;51.070;4.974;2022-12-20T01:18:28;4.90;;;1.90;;
33501;SDS011;22396;51.070;4.974;2022-12-20T01:20:59;4.85;;;1.75;;
33501;SDS011;22396;51.070;4.974;2022-12-20T01:23:24;5.25;;;1.60;;
33501;SDS011;22396;51.070;4.974;2022-12-20T01:25:50;2.97;;;1.67;;
33501;SDS011;22396;51.070;4.974;2022-12-20T01:28:15;3.20;;;1.45;;
33501;SDS011;22396;51.070;4.974;2022-12-20T01:30:40;2.67;;;1.67;;
33501;SDS011;22396;51.070;4.974;2022-12-20T01:33:06;3.17;;;1.60;;
33501;SDS011;22396;51.070;4.974;2022-12-20T01:35:31;3.75;;;1.55;;
33501;SDS011;22396;51.070;4.974;2022-12-20T01:37:56;3.95;;;1.98;;
33501;SDS011;22396;51.070;4.974;2022-12-20T01:40:21;3.67;;;1.70;;
33501;SDS011;22396;51.070;4.974;2022-12-20T01:42:46;2.35;;;1.48;;
33501;SDS011;22396;51.070;4.974;2022-12-20T01:45:12;4.72;;;2.10;;
33501;SDS011;22396;51.070;4.974;2022-12-20T01:47:38;3.90;;;1.40;;
33501;SDS011;22396;51.070;4.974;2022-12-20T01:50:04;3.05;;;1.40;;
33501;SDS011;22396;51.070;4.974;2022-12-20T01:52:32;2.85;;;1.70;;
33501;SDS011;22396;51.070;4.974;2022-12-20T01:55:04;4.28;;;2.00;;
33501;SDS011;22396;51.070;4.974;2022-12-20T01:57:39;4.93;;;1.83;;
33501;SDS011;22396;51.070;4.974;2022-12-20T02:00:06;3.33;;;1.75;;
33501;SDS011;22396;51.070;4.974;2022-12-20T02:02:33;3.17;;;1.60;;
33501;SDS011;22396;51.070;4.974;2022-12-20T02:04:59;2.67;;;1.30;;
33501;SDS011;22396;51.070;4.974;2022-12-20T02:07:25;5.20;;;1.75;;
33501;SDS011;22396;51.070;4.974;2022-12-20T02:09:51;2.80;;;1.77;;
33501;SDS011;22396;51.070;4.974;2022-12-20T02:12:21;3.03;;;1.60;;
33501;SDS011;22396;51.070;4.974;2022-12-20T02:28:04;2.97;;;1.73;;
33501;SDS011;22396;51.070;4.974;2022-12-20T02:30:22;4.50;;;1.80;;
33501;SDS011;22396;51.070;4.974;2022-12-20T02:32:56;3.05;;;1.67;;
33501;SDS011;22396;51.070;4.974;2022-12-20T02:35:25;3.13;;;1.40;;
33501;SDS011;22396;51.070;4.974;2022-12-20T02:37:51;3.88;;;2.20;;
33501;SDS011;22396;51.070;4.974;2022-12-20T02:40:21;3.58;;;1.83;;
33501;SDS011;22396;51.070;4.974;2022-12-20T02:42:47;4.70;;;1.70;;
33501;SDS011;22396;51.070;4.974;2022-12-20T02:45:15;3.60;;;1.67;;
33501;SDS011;22396;51.070;4.974;2022-12-20T02:50:11;3.78;;;1.92;;
33501;SDS011;22396;51.070;4.974;2022-12-20T02:52:37;3.95;;;1.92;;
33501;SDS011;22396;51.070;4.974;2022-12-20T02:55:03;4.43;;;1.67;;
33501;SDS011;22396;51.070;4.974;2022-12-20T02:57:41;3.25;;;1.55;;
33501;SDS011;22396;51.070;4.974;2022-12-20T03:00:16;5.03;;;1.75;;
33501;SDS011;22396;51.070;4.974;2022-12-20T03:02:42;5.65;;;1.60;;
33501;SDS011;22396;51.070;4.974;2022-12-20T03:05:26;4.82;;;1.80;;
33501;SDS011;22396;51.070;4.974;2022-12-20T03:07:52;6.45;;;1.83;;
33501;SDS011;22396;51.070;4.974;2022-12-20T03:10:18;3.53;;;1.70;;
33501;SDS011;22396;51.070;4.974;2022-12-20T03:12:43;3.08;;;1.60;;
33501;SDS011;22396;51.070;4.974;2022-12-20T03:15:08;3.05;;;1.92;;
33501;SDS011;22396;51.070;4.974;2022-12-20T03:17:34;5.00;;;2.08;;
33501;SDS011;22396;51.070;4.974;2022-12-20T03:19:59;6.53;;;1.88;;
33501;SDS011;22396;51.070;4.974;2022-12-20T03:22:24;6.25;;;1.80;;
33501;SDS011;22396;51.070;4.974;2022-12-20T03:24:50;3.97;;;1.80;;
33501;SDS011;22396;51.070;4.974;2022-12-20T03:27:15;4.03;;;1.80;;
33501;SDS011;22396;51.070;4.974;2022-12-20T03:29:40;2.95;;;1.80;;
33501;SDS011;22396;51.070;4.974;2022-12-20T03:32:05;2.95;;;1.58;;
33501;SDS011;22396;51.070;4.974;2022-12-20T03:34:31;6.85;;;1.70;;
33501;SDS011;22396;51.070;4.974;2022-12-20T03:36:56;5.18;;;1.90;;
33501;SDS011;22396;51.070;4.974;2022-12-20T03:39:21;6.30;;;1.70;;
33501;SDS011;22396;51.070;4.974;2022-12-20T03:41:46;4.95;;;2.00;;
33501;SDS011;22396;51.070;4.974;2022-12-20T03:44:11;6.50;;;1.70;;
33501;SDS011;22396;51.070;4.974;2022-12-20T03:46:37;3.05;;;1.25;;
33501;SDS011;22396;51.070;4.974;2022-12-20T03:49:02;2.45;;;1.38;;
33501;SDS011;22396;51.070;4.974;2022-12-20T03:51:27;3.85;;;1.48;;
33501;SDS011;22396;51.070;4.974;2022-12-20T03:53:52;4.20;;;1.58;;
33501;SDS011;22396;51.070;4.974;2022-12-20T03:56:18;5.80;;;1.77;;
33501;SDS011;22396;51.070;4.974;2022-12-20T03:58:43;2.75;;;1.55;;
33501;SDS011;22396;51.070;4.974;2022-12-20T04:01:15;3.72;;;1.90;;
33501;SDS011;22396;51.070;4.974;2022-12-20T04:03:40;4.93;;;1.35;;
33501;SDS011;22396;51.070;4.974;2022-12-20T04:06:06;3.88;;;1.27;;
33501;SDS011;22396;51.070;4.974;2022-12-20T04:08:31;3.92;;;1.70;;
33501;SDS011;22396;51.070;4.974;2022-12-20T04:10:56;4.32;;;1.30;;
33501;SDS011;22396;51.070;4.974;2022-12-20T04:13:40;4.85;;;1.95;;
33501;SDS011;22396;51.070;4.974;2022-12-20T04:16:05;3.70;;;1.92;;
33501;SDS011;22396;51.070;4.974;2022-12-20T04:18:30;1.13;;;0.57;;
33501;SDS011;22396;51.070;4.974;2022-12-20T04:20:55;2.63;;;1.15;;
33501;SDS011;22396;51.070;4.974;2022-12-20T04:23:23;3.90;;;1.90;;
33501;SDS011;22396;51.070;4.974;2022-12-20T04:25:48;5.35;;;1.95;;
33501;SDS011;22396;51.070;4.974;2022-12-20T04:28:14;3.75;;;1.98;;
33501;SDS011;22396;51.070;4.974;2022-12-20T04:30:39;6.35;;;1.95;;
33501;SDS011;22396;51.070;4.974;2022-12-20T04:33:04;4.97;;;2.00;;
33501;SDS011;22396;51.070;4.974;2022-12-20T04:35:29;4.07;;;1.73;;
33501;SDS011;22396;51.070;4.974;2022-12-20T04:37:54;2.65;;;1.70;;
33501;SDS011;22396;51.070;4.974;2022-12-20T04:40:20;2.90;;;1.48;;
33501;SDS011;22396;51.070;4.974;2022-12-20T04:42:45;4.40;;;1.45;;
33501;SDS011;22396;51.070;4.974;2022-12-20T04:45:10;5.55;;;1.90;;
33501;SDS011;22396;51.070;4.974;2022-12-20T04:47:35;3.88;;;1.50;;
33501;SDS011;22396;51.070;4.974;2022-12-20T04:50:00;4.20;;;1.73;;
33501;SDS011;22396;51.070;4.974;2022-12-20T04:52:25;3.47;;;2.13;;
33501;SDS011;22396;51.070;4.974;2022-12-20T04:55:09;6.05;;;1.73;;
33501;SDS011;22396;51.070;4.974;2022-12-20T04:57:34;2.95;;;1.30;;
33501;SDS011;22396;51.070;4.974;2022-12-20T05:00:00;4.18;;;1.52;;
33501;SDS011;22396;51.070;4.974;2022-12-20T05:02:25;4.80;;;1.05;;
33501;SDS011;22396;51.070;4.974;2022-12-20T05:04:50;2.00;;;1.27;;
33501;SDS011;22396;51.070;4.974;2022-12-20T05:07:15;3.38;;;1.50;;
33501;SDS011;22396;51.070;4.974;2022-12-20T05:09:40;5.97;;;1.27;;
33501;SDS011;22396;51.070;4.974;2022-12-20T05:12:06;3.67;;;1.30;;
33501;SDS011;22396;51.070;4.974;2022-12-20T05:14:31;4.75;;;1.55;;
33501;SDS011;22396;51.070;4.974;2022-12-20T05:16:56;3.92;;;1.27;;
33501;SDS011;22396;51.070;4.974;2022-12-20T05:19:21;2.85;;;1.40;;
33501;SDS011;22396;51.070;4.974;2022-12-20T05:21:46;2.03;;;1.42;;
33501;SDS011;22396;51.070;4.974;2022-12-20T05:24:30;5.18;;;1.45;;
33501;SDS011;22396;51.070;4.974;2022-12-20T05:27:14;4.05;;;1.40;;
33501;SDS011;22396;51.070;4.974;2022-12-20T05:29:39;2.00;;;1.23;;
33501;SDS011;22396;51.070;4.974;2022-12-20T05:32:05;2.80;;;1.30;;
33501;SDS011;22396;51.070;4.974;2022-12-20T05:34:30;5.95;;;1.60;;
33501;SDS011;22396;51.070;4.974;2022-12-20T05:36:55;3.75;;;1.33;;
33501;SDS011;22396;51.070;4.974;2022-12-20T05:39:20;3.45;;;1.55;;
33501;SDS011;22396;51.070;4.974;2022-12-20T05:41:45;4.95;;;1.30;;
33501;SDS011;22396;51.070;4.974;2022-12-20T05:44:11;4.10;;;1.58;;
33501;SDS011;22396;51.070;4.974;2022-12-20T05:46:36;2.60;;;1.20;;
33501;SDS011;22396;51.070;4.974;2022-12-20T05:49:01;3.55;;;1.30;;
33501;SDS011;22396;51.070;4.974;2022-12-20T05:51:27;5.70;;;1.70;;
33501;SDS011;22396;51.070;4.974;2022-12-20T05:53:52;3.42;;;1.38;;
33501;SDS011;22396;51.070;4.974;2022-12-20T05:56:17;2.25;;;1.17;;
33501;SDS011;22396;51.070;4.974;2022-12-20T05:58:42;3.05;;;1.20;;
33501;SDS011;22396;51.070;4.974;2022-12-20T06:01:08;4.82;;;1.20;;
33501;SDS011;22396;51.070;4.974;2022-12-20T06:03:34;1.48;;;0.80;;
33501;SDS011;22396;51.070;4.974;2022-12-20T06:06:00;4.80;;;1.17;;
33501;SDS011;22396;51.070;4.974;2022-12-20T06:08:25;4.43;;;0.90;;
33501;SDS011;22396;51.070;4.974;2022-12-20T06:10:51;3.72;;;1.23;;
33501;SDS011;22396;51.070;4.974;2022-12-20T06:13:16;5.38;;;1.48;;
33501;SDS011;22396;51.070;4.974;2022-12-20T06:15:41;4.32;;;1.38;;
33501;SDS011;22396;51.070;4.974;2022-12-20T06:18:07;2.05;;;0.82;;
33501;SDS011;22396;51.070;4.974;2022-12-20T06:20:35;3.08;;;1.30;;
33501;SDS011;22396;51.070;4.974;2022-12-20T06:23:01;2.58;;;1.38;;
33501;SDS011;22396;51.070;4.974;2022-12-20T06:25:27;5.65;;;1.35;;
33501;SDS011;22396;51.070;4.974;2022-12-20T06:27:53;3.20;;;1.20;;
33501;SDS011;22396;51.070;4.974;2022-12-20T06:30:18;2.22;;;1.13;;
33501;SDS011;22396;51.070;4.974;2022-12-20T06:32:44;2.03;;;1.30;;
33501;SDS011;22396;51.070;4.974;2022-12-20T06:35:09;2.60;;;1.30;;
33501;SDS011;22396;51.070;4.974;2022-12-20T06:37:34;5.55;;;1.20;;
33501;SDS011;22396;51.070;4.974;2022-12-20T06:40:00;4.63;;;1.40;;
33501;SDS011;22396;51.070;4.974;2022-12-20T06:42:26;2.17;;;1.00;;
33501;SDS011;22396;51.070;4.974;2022-12-20T06:44:51;2.38;;;1.00;;
33501;SDS011;22396;51.070;4.974;2022-12-20T06:47:16;3.17;;;1.25;;
33501;SDS011;22396;51.070;4.974;2022-12-20T06:49:41;6.00;;;1.23;;
33501;SDS011;22396;51.070;4.974;2022-12-20T06:52:06;4.25;;;1.20;;
33501;SDS011;22396;51.070;4.974;2022-12-20T06:54:32;3.40;;;1.02;;
33501;SDS011;22396;51.070;4.974;2022-12-20T06:56:57;3.45;;;1.20;;
33501;SDS011;22396;51.070;4.974;2022-12-20T06:59:22;8.68;;;1.42;;
33501;SDS011;22396;51.070;4.974;2022-12-20T07:01:47;1.77;;;1.10;;
33501;SDS011;22396;51.070;4.974;2022-12-20T07:04:12;2.80;;;1.50;;
33501;SDS011;22396;51.070;4.974;2022-12-20T07:06:38;3.05;;;1.17;;
33501;SDS011;22396;51.070;4.974;2022-12-20T07:09:03;4.78;;;1.00;;
33501;SDS011;22396;51.070;4.974;2022-12-20T07:11:28;2.95;;;1.20;;
33501;SDS011;22396;51.070;4.974;2022-12-20T07:13:54;4.75;;;1.30;;
33501;SDS011;22396;51.070;4.974;2022-12-20T07:16:19;5.88;;;1.45;;
33501;SDS011;22396;51.070;4.974;2022-12-20T07:18:47;5.90;;;1.30;;
33501;SDS011;22396;51.070;4.974;2022-12-20T07:21:13;2.53;;;1.30;;
33501;SDS011;22396;51.070;4.974;2022-12-20T07:23:40;4.47;;;1.30;;
33501;SDS011;22396;51.070;4.974;2022-12-20T07:26:05;3.58;;;1.27;;
33501;SDS011;22396;51.070;4.974;2022-12-20T07:28:32;3.95;;;1.35;;
33501;SDS011;22396;51.070;4.974;2022-12-20T07:30:59;1.90;;;1.27;;
33501;SDS011;22396;51.070;4.974;2022-12-20T07:33:24;2.88;;;1.40;;
33501;SDS011;22396;51.070;4.974;2022-12-20T07:35:49;3.08;;;1.88;;
33501;SDS011;22396;51.070;4.974;2022-12-20T07:38:15;7.10;;;1.98;;
33501;SDS011;22396;51.070;4.974;2022-12-20T07:40:41;3.28;;;1.40;;
33501;SDS011;22396;51.070;4.974;2022-12-20T07:43:07;4.05;;;1.38;;
33501;SDS011;22396;51.070;4.974;2022-12-20T07:45:33;2.00;;;1.05;;
33501;SDS011;22396;51.070;4.974;2022-12-20T07:47:58;2.08;;;1.33;;
33501;SDS011;22396;51.070;4.974;2022-12-20T07:50:23;5.78;;;1.02;;
33501;SDS011;22396;51.070;4.974;2022-12-20T07:52:48;3.03;;;1.40;;
33501;SDS011;22396;51.070;4.974;2022-12-20T07:55:14;8.38;;;1.63;;
33501;SDS011;22396;51.070;4.974;2022-12-20T07:57:41;7.53;;;1.80;;
33501;SDS011;22396;51.070;4.974;2022-12-20T08:00:08;6.18;;;1.30;;
33501;SDS011;22396;51.070;4.974;2022-12-20T08:02:45;4.10;;;1.30;;
33501;SDS011;22396;51.070;4.974;2022-12-20T08:05:11;5.22;;;1.42;;
33501;SDS011;22396;51.070;4.974;2022-12-20T08:07:37;3.60;;;1.48;;
33501;SDS011;22396;51.070;4.974;2022-12-20T08:10:04;2.25;;;1.30;;
33501;SDS011;22396;51.070;4.974;2022-12-20T08:12:29;3.50;;;1.60;;
33501;SDS011;22396;51.070;4.974;2022-12-20T08:14:56;4.90;;;1.70;;
33501;SDS011;22396;51.070;4.974;2022-12-20T08:17:21;3.83;;;1.17;;
33501;SDS011;22396;51.070;4.974;2022-12-20T08:19:47;3.42;;;1.40;;
33501;SDS011;22396;51.070;4.974;2022-12-20T08:22:14;3.88;;;1.20;;
33501;SDS011;22396;51.070;4.974;2022-12-20T08:24:40;2.70;;;1.35;;
33501;SDS011;22396;51.070;4.974;2022-12-20T08:27:05;2.58;;;1.30;;
33501;SDS011;22396;51.070;4.974;2022-12-20T08:29:30;3.28;;;1.45;;
33501;SDS011;22396;51.070;4.974;2022-12-20T08:31:55;2.78;;;1.52;;
33501;SDS011;22396;51.070;4.974;2022-12-20T08:34:21;3.95;;;1.40;;
33501;SDS011;22396;51.070;4.974;2022-12-20T08:36:46;5.78;;;1.67;;
33501;SDS011;22396;51.070;4.974;2022-12-20T08:39:11;3.50;;;1.48;;
33501;SDS011;22396;51.070;4.974;2022-12-20T08:41:36;2.78;;;1.27;;
33501;SDS011;22396;51.070;4.974;2022-12-20T08:44:02;3.78;;;1.50;;
33501;SDS011;22396;51.070;4.974;2022-12-20T08:46:28;6.75;;;1.40;;
33501;SDS011;22396;51.070;4.974;2022-12-20T08:48:53;1.88;;;1.10;;
33501;SDS011;22396;51.070;4.974;2022-12-20T08:51:18;4.05;;;1.50;;
33501;SDS011;22396;51.070;4.974;2022-12-20T08:53:43;1.67;;;1.00;;
33501;SDS011;22396;51.070;4.974;2022-12-20T08:56:13;4.00;;;1.42;;
33501;SDS011;22396;51.070;4.974;2022-12-20T08:58:38;2.75;;;1.40;;
33501;SDS011;22396;51.070;4.974;2022-12-20T09:01:04;3.08;;;1.45;;
33501;SDS011;22396;51.070;4.974;2022-12-20T09:03:30;4.40;;;1.50;;
33501;SDS011;22396;51.070;4.974;2022-12-20T09:05:55;2.92;;;1.17;;
33501;SDS011;22396;51.070;4.974;2022-12-20T09:08:21;3.40;;;1.45;;
33501;SDS011;22396;51.070;4.974;2022-12-20T09:10:46;2.65;;;1.20;;
33501;SDS011;22396;51.070;4.974;2022-12-20T09:13:11;10.30;;;1.50;;
33501;SDS011;22396;51.070;4.974;2022-12-20T09:15:36;8.52;;;1.50;;
33501;SDS011;22396;51.070;4.974;2022-12-20T09:18:02;3.05;;;1.52;;
33501;SDS011;22396;51.070;4.974;2022-12-20T09:20:27;6.85;;;1.58;;
33501;SDS011;22396;51.070;4.974;2022-12-20T09:22:53;4.07;;;1.45;;
33501;SDS011;22396;51.070;4.974;2022-12-20T09:25:18;4.22;;;1.55;;
33501;SDS011;22396;51.070;4.974;2022-12-20T09:27:43;3.35;;;1.60;;
33501;SDS011;22396;51.070;4.974;2022-12-20T09:30:09;5.30;;;1.08;;
33501;SDS011;22396;51.070;4.974;2022-12-20T09:32:34;3.20;;;1.45;;
33501;SDS011;22396;51.070;4.974;2022-12-20T09:34:59;3.35;;;1.38;;
33501;SDS011;22396;51.070;4.974;2022-12-20T09:37:25;4.32;;;1.42;;
33501;SDS011;22396;51.070;4.974;2022-12-20T09:39:50;3.38;;;1.40;;
33501;SDS011;22396;51.070;4.974;2022-12-20T09:42:15;3.13;;;1.50;;
33501;SDS011;22396;51.070;4.974;2022-12-20T09:44:41;5.45;;;1.65;;
33501;SDS011;22396;51.070;4.974;2022-12-20T09:47:13;2.20;;;1.35;;
33501;SDS011;22396;51.070;4.974;2022-12-20T09:52:18;6.57;;;1.75;;
33501;SDS011;22396;51.070;4.974;2022-12-20T09:55:09;2.67;;;1.63;;
33501;SDS011;22396;51.070;4.974;2022-12-20T10:00:16;7.07;;;1.70;;
33501;SDS011;22396;51.070;4.974;2022-12-20T10:02:42;3.92;;;1.77;;
33501;SDS011;22396;51.070;4.974;2022-12-20T10:05:12;6.30;;;2.05;;
33501;SDS011;22396;51.070;4.974;2022-12-20T10:07:48;3.00;;;1.42;;
33501;SDS011;22396;51.070;4.974;2022-12-20T10:12:44;3.15;;;1.42;;
33501;SDS011;22396;51.070;4.974;2022-12-20T10:15:27;4.68;;;1.80;;
33501;SDS011;22396;51.070;4.974;2022-12-20T10:18:10;7.07;;;1.50;;
33501;SDS011;22396;51.070;4.974;2022-12-20T10:25:33;7.70;;;1.10;;
33501;SDS011;22396;51.070;4.974;2022-12-20T10:28:02;3.83;;;1.63;;
33501;SDS011;22396;51.070;4.974;2022-12-20T10:30:28;2.55;;;1.38;;
33501;SDS011;22396;51.070;4.974;2022-12-20T10:32:56;4.93;;;1.42;;
33501;SDS011;22396;51.070;4.974;2022-12-20T10:35:43;4.10;;;1.67;;
33501;SDS011;22396;51.070;4.974;2022-12-20T10:38:09;4.75;;;1.48;;
33501;SDS011;22396;51.070;4.974;2022-12-20T10:40:38;4.90;;;1.63;;
33501;SDS011;22396;51.070;4.974;2022-12-20T10:43:04;3.53;;;1.40;;
33501;SDS011;22396;51.070;4.974;2022-12-20T10:45:34;1.63;;;0.88;;
33501;SDS011;22396;51.070;4.974;2022-12-20T10:48:01;6.13;;;1.55;;
33501;SDS011;22396;51.070;4.974;2022-12-20T10:50:27;4.53;;;1.80;;
33501;SDS011;22396;51.070;4.974;2022-12-20T10:55:42;6.32;;;1.65;;
33501;SDS011;22396;51.070;4.974;2022-12-20T10:58:12;4.70;;;1.80;;
33501;SDS011;22396;51.070;4.974;2022-12-20T11:00:38;5.53;;;1.60;;
33501;SDS011;22396;51.070;4.974;2022-12-20T11:03:04;0.82;;;0.60;;
33501;SDS011;22396;51.070;4.974;2022-12-20T11:05:31;3.92;;;1.40;;
33501;SDS011;22396;51.070;4.974;2022-12-20T11:07:57;2.08;;;0.68;;
33501;SDS011;22396;51.070;4.974;2022-12-20T11:10:24;3.70;;;1.50;;
33501;SDS011;22396;51.070;4.974;2022-12-20T11:12:53;3.65;;;1.80;;
33501;SDS011;22396;51.070;4.974;2022-12-20T11:15:19;4.70;;;2.20;;
33501;SDS011;22396;51.070;4.974;2022-12-20T11:17:46;5.65;;;2.10;;
33501;SDS011;22396;51.070;4.974;2022-12-20T11:28:04;4.47;;;2.00;;
33501;SDS011;22396;51.070;4.974;2022-12-20T11:30:42;5.13;;;1.88;;
33501;SDS011;22396;51.070;4.974;2022-12-20T11:36:05;6.78;;;1.98;;
33501;SDS011;22396;51.070;4.974;2022-12-20T11:41:14;4.78;;;2.38;;
33501;SDS011;22396;51.070;4.974;2022-12-20T11:54:40;6.75;;;2.42;;
33501;SDS011;22396;51.070;4.974;2022-12-20T11:57:12;7.53;;;2.80;;
33501;SDS011;22396;51.070;4.974;2022-12-20T11:59:44;7.95;;;2.90;;
33501;SDS011;22396;51.070;4.974;2022-12-20T12:02:12;12.45;;;3.22;;
33501;SDS011;22396;51.070;4.974;2022-12-20T12:04:46;6.57;;;3.30;;
33501;SDS011;22396;51.070;4.974;2022-12-20T12:07:16;8.25;;;2.85;;
33501;SDS011;22396;51.070;4.974;2022-12-20T12:09:49;6.72;;;3.30;;
33501;SDS011;22396;51.070;4.974;2022-12-20T12:12:39;8.00;;;2.67;;
33501;SDS011;22396;51.070;4.974;2022-12-20T12:20:17;6.32;;;3.00;;
33501;SDS011;22396;51.070;4.974;2022-12-20T12:22:44;7.00;;;2.65;;
33501;SDS011;22396;51.070;4.974;2022-12-20T12:25:12;6.00;;;2.83;;
33501;SDS011;22396;51.070;4.974;2022-12-20T12:27:39;7.88;;;2.50;;
33501;SDS011;22396;51.070;4.974;2022-12-20T12:30:04;7.55;;;2.83;;
33501;SDS011;22396;51.070;4.974;2022-12-20T12:32:32;6.43;;;1.58;;
33501;SDS011;22396;51.070;4.974;2022-12-20T12:40:09;8.65;;;2.92;;
33501;SDS011;22396;51.070;4.974;2022-12-20T12:45:28;6.78;;;3.22;;
33501;SDS011;22396;51.070;4.974;2022-12-20T12:52:48;4.65;;;2.65;;
33501;SDS011;22396;51.070;4.974;2022-12-20T12:58:02;6.45;;;2.60;;
33501;SDS011;22396;51.070;4.974;2022-12-20T13:00:47;5.50;;;2.45;;
33501;SDS011;22396;51.070;4.974;2022-12-20T13:03:14;9.38;;;2.50;;
33501;SDS011;22396;51.070;4.974;2022-12-20T13:05:40;4.72;;;2.47;;
33501;SDS011;22396;51.070;4.974;2022-12-20T13:08:13;8.35;;;2.78;;
33501;SDS011;22396;51.070;4.974;2022-12-20T13:13:11;5.07;;;2.50;;
33501;SDS011;22396;51.070;4.974;2022-12-20T13:20:33;12.55;;;3.08;;
33501;SDS011;22396;51.070;4.974;2022-12-20T13:23:17;6.38;;;2.92;;
33501;SDS011;22396;51.070;4.974;2022-12-20T13:25:43;6.20;;;2.83;;
33501;SDS011;22396;51.070;4.974;2022-12-20T13:30:47;5.97;;;2.67;;
33501;SDS011;22396;51.070;4.974;2022-12-20T13:35:59;8.27;;;2.60;;
33501;SDS011;22396;51.070;4.974;2022-12-20T13:40:57;6.25;;;3.30;;
33501;SDS011;22396;51.070;4.974;2022-12-20T13:43:27;9.73;;;3.20;;
33501;SDS011;22396;51.070;4.974;2022-12-20T13:45:54;7.35;;;3.22;;
33501;SDS011;22396;51.070;4.974;2022-12-20T13:48:24;11.93;;;3.15;;
33501;SDS011;22396;51.070;4.974;2022-12-20T13:50:54;7.63;;;2.70;;
33501;SDS011;22396;51.070;4.974;2022-12-20T13:53:20;5.50;;;2.72;;
33501;SDS011;22396;51.070;4.974;2022-12-20T13:55:46;7.88;;;3.22;;
33501;SDS011;22396;51.070;4.974;2022-12-20T14:00:41;9.85;;;3.20;;
33501;SDS011;22396;51.070;4.974;2022-12-20T14:03:12;12.02;;;3.45;;
33501;SDS011;22396;51.070;4.974;2022-12-20T14:05:41;7.60;;;3.20;;
33501;SDS011;22396;51.070;4.974;2022-12-20T14:08:16;8.05;;;3.30;;
33501;SDS011;22396;51.070;4.974;2022-12-20T14:10:43;10.05;;;3.72;;
33501;SDS011;22396;51.070;4.974;2022-12-20T14:13:21;8.85;;;3.53;;
33501;SDS011;22396;51.070;4.974;2022-12-20T14:15:47;11.75;;;4.35;;
33501;SDS011;22396;51.070;4.974;2022-12-20T14:18:19;10.13;;;3.75;;
33501;SDS011;22396;51.070;4.974;2022-12-20T14:20:46;7.60;;;4.10;;
33501;SDS011;22396;51.070;4.974;2022-12-20T14:23:16;7.75;;;3.70;;
33501;SDS011;22396;51.070;4.974;2022-12-20T14:25:45;5.13;;;2.08;;
33501;SDS011;22396;51.070;4.974;2022-12-20T14:30:55;5.75;;;2.90;;
33501;SDS011;22396;51.070;4.974;2022-12-20T14:33:29;6.40;;;3.47;;
33501;SDS011;22396;51.070;4.974;2022-12-20T14:35:55;6.55;;;3.40;;
33501;SDS011;22396;51.070;4.974;2022-12-20T14:38:21;8.63;;;3.45;;
33501;SDS011;22396;51.070;4.974;2022-12-20T14:40:47;7.88;;;3.20;;
33501;SDS011;22396;51.070;4.974;2022-12-20T14:43:13;16.58;;;4.28;;
33501;SDS011;22396;51.070;4.974;2022-12-20T14:45:38;7.05;;;3.40;;
33501;SDS011;22396;51.070;4.974;2022-12-20T14:48:04;7.43;;;4.15;;
33501;SDS011;22396;51.070;4.974;2022-12-20T14:50:35;7.60;;;3.33;;
33501;SDS011;22396;51.070;4.974;2022-12-20T14:53:01;17.00;;;5.07;;
33501;SDS011;22396;51.070;4.974;2022-12-20T14:57:52;4.70;;;3.40;;
33501;SDS011;22396;51.070;4.974;2022-12-20T15:02:50;8.40;;;2.95;;
33501;SDS011;22396;51.070;4.974;2022-12-20T15:10:48;9.82;;;4.93;;
33501;SDS011;22396;51.070;4.974;2022-12-20T15:13:15;6.22;;;3.08;;
33501;SDS011;22396;51.070;4.974;2022-12-20T15:15:40;7.68;;;3.40;;
33501;SDS011;22396;51.070;4.974;2022-12-20T15:18:12;11.40;;;3.65;;
33501;SDS011;22396;51.070;4.974;2022-12-20T15:23:03;7.32;;;3.70;;
33501;SDS011;22396;51.070;4.974;2022-12-20T15:25:29;11.65;;;3.28;;
33501;SDS011;22396;51.070;4.974;2022-12-20T15:27:56;10.38;;;3.38;;
33501;SDS011;22396;51.070;4.974;2022-12-20T15:30:21;7.43;;;3.45;;
33501;SDS011;22396;51.070;4.974;2022-12-20T15:32:46;7.03;;;3.40;;
33501;SDS011;22396;51.070;4.974;2022-12-20T15:35:12;8.85;;;3.30;;
33501;SDS011;22396;51.070;4.974;2022-12-20T15:37:37;9.25;;;3.70;;
33501;SDS011;22396;51.070;4.974;2022-12-20T15:40:03;10.60;;;3.60;;
33501;SDS011;22396;51.070;4.974;2022-12-20T15:42:28;9.68;;;3.85;;
33501;SDS011;22396;51.070;4.974;2022-12-20T15:44:53;9.10;;;3.97;;
33501;SDS011;22396;51.070;4.974;2022-12-20T15:47:18;7.90;;;4.00;;
33501;SDS011;22396;51.070;4.974;2022-12-20T15:49:43;8.15;;;3.97;;
33501;SDS011;22396;51.070;4.974;2022-12-20T15:52:17;10.77;;;4.80;;
33501;SDS011;22396;51.070;4.974;2022-12-20T15:54:43;6.50;;;4.00;;
33501;SDS011;22396;51.070;4.974;2022-12-20T15:57:08;6.85;;;4.07;;
33501;SDS011;22396;51.070;4.974;2022-12-20T15:59:35;8.88;;;5.05;;
33501;SDS011;22396;51.070;4.974;2022-12-20T16:02:00;9.10;;;4.43;;
33501;SDS011;22396;51.070;4.974;2022-12-20T16:04:26;9.60;;;4.10;;
33501;SDS011;22396;51.070;4.974;2022-12-20T16:06:52;9.27;;;4.20;;
33501;SDS011;22396;51.070;4.974;2022-12-20T16:09:18;7.90;;;3.22;;
33501;SDS011;22396;51.070;4.974;2022-12-20T16:11:44;6.65;;;3.92;;
33501;SDS011;22396;51.070;4.974;2022-12-20T16:14:12;5.70;;;3.63;;
33501;SDS011;22396;51.070;4.974;2022-12-20T16:16:38;6.22;;;3.30;;
33501;SDS011;22396;51.070;4.974;2022-12-20T16:19:03;10.27;;;4.20;;
33501;SDS011;22396;51.070;4.974;2022-12-20T16:21:32;9.30;;;3.95;;
33501;SDS011;22396;51.070;4.974;2022-12-20T16:23:58;7.15;;;3.53;;
33501;SDS011;22396;51.070;4.974;2022-12-20T16:26:24;9.95;;;4.95;;
33501;SDS011;22396;51.070;4.974;2022-12-20T16:28:50;12.98;;;5.25;;
33501;SDS011;22396;51.070;4.974;2022-12-20T16:33:47;10.13;;;4.60;;
33501;SDS011;22396;51.070;4.974;2022-12-20T16:36:13;9.25;;;4.72;;
33501;SDS011;22396;51.070;4.974;2022-12-20T16:38:38;10.57;;;4.32;;